createdAt,value
2018-11-27T00:00:22.782Z,98726.51
2018-11-27T00:02:52.103Z,98733.11
2018-11-27T00:05:20.419Z,98730.08
2018-11-27T00:07:48.755Z,98734.89
2018-11-27T00:10:17.040Z,98736.95
2018-11-27T00:12:45.537Z,98739.58
2018-11-27T00:15:14.092Z,98735.74
2018-11-27T00:17:42.464Z,98738.64
2018-11-27T00:20:13.087Z,98737.04
2018-11-27T00:22:41.585Z,98737.14
2018-11-27T00:25:12.914Z,98736.75
2018-11-27T00:27:41.345Z,98738.19
2018-11-27T00:30:12.568Z,98740.16
2018-11-27T00:32:40.945Z,98735.16
2018-11-27T00:35:12.300Z,98734.13
2018-11-27T00:37:40.665Z,98736.31
2018-11-27T00:40:12.392Z,98736.97
2018-11-27T00:42:40.830Z,98745.45
2018-11-27T00:45:11.424Z,98744.70
2018-11-27T00:47:39.791Z,98749.38
2018-11-27T00:50:10.936Z,98760.14
2018-11-27T00:52:39.618Z,98757.20
2018-11-27T00:55:09.520Z,98761.72
2018-11-27T00:57:38.098Z,98771.70
2018-11-27T01:00:10.827Z,98773.77
2018-11-27T01:02:39.225Z,98773.41
2018-11-27T01:05:09.346Z,98779.81
2018-11-27T01:07:37.811Z,98779.80
2018-11-27T01:10:09.608Z,98782.65
2018-11-27T01:12:43.898Z,98777.64
2018-11-27T01:15:12.981Z,98782.92
2018-11-27T01:17:42.765Z,98782.92
2018-11-27T01:20:17.385Z,98788.85
2018-11-27T01:22:45.786Z,98790.92
2018-11-27T01:25:14.224Z,98791.08
2018-11-27T01:27:42.627Z,98793.25
2018-11-27T01:30:16.037Z,98796.45
2018-11-27T01:32:44.532Z,98800.69
2018-11-27T01:35:14.126Z,98799.94
2018-11-27T01:37:42.497Z,98802.29
2018-11-27T01:40:19.991Z,98801.25
2018-11-27T01:42:49.375Z,98803.73
2018-11-27T01:45:18.884Z,98808.16
2018-11-27T01:47:47.660Z,98806.37
2018-11-27T01:50:16.765Z,98810.95
2018-11-27T01:52:45.086Z,98806.52
2018-11-27T01:55:15.244Z,98811.17
2018-11-27T01:57:43.765Z,98809.47
2018-11-27T02:00:21.984Z,98806.46
2018-11-27T02:02:50.637Z,98803.61
2018-11-27T02:05:19.008Z,98794.84
2018-11-27T02:07:47.429Z,98797.52
2018-11-27T02:10:15.871Z,98799.09
2018-11-27T02:12:45.292Z,98799.84
2018-11-27T02:15:15.997Z,98799.84
2018-11-27T02:17:44.345Z,98803.33
2018-11-27T02:20:13.092Z,98799.84
2018-11-27T02:22:41.611Z,98797.11
2018-11-27T02:25:13.614Z,98799.55
2018-11-27T02:27:41.910Z,98798.02
2018-11-27T02:30:11.921Z,98801.25
2018-11-27T02:32:40.263Z,98801.06
2018-11-27T02:35:10.319Z,98802.72
2018-11-27T02:37:38.729Z,98800.88
2018-11-27T02:40:09.595Z,98805.02
2018-11-27T02:42:38.074Z,98807.37
2018-11-27T02:45:08.229Z,98806.43
2018-11-27T02:47:36.549Z,98814.72
2018-11-27T02:50:05.759Z,98811.95
2018-11-27T02:52:34.123Z,98810.16
2018-11-27T02:55:02.518Z,98816.59
2018-11-27T02:57:30.998Z,98819.14
2018-11-27T02:59:59.409Z,98820.55
2018-11-27T03:02:27.734Z,98820.70
2018-11-27T03:04:56.038Z,98831.14
2018-11-27T03:07:24.316Z,98823.56
2018-11-27T03:09:52.612Z,98827.30
2018-11-27T03:12:20.905Z,98820.17
2018-11-27T03:14:49.217Z,98824.28
2018-11-27T03:17:17.548Z,98833.67
2018-11-27T03:19:46.089Z,98826.76
2018-11-27T03:22:14.440Z,98825.59
2018-11-27T03:24:42.840Z,98829.55
2018-11-27T03:27:11.221Z,98835.48
2018-11-27T03:29:39.607Z,98839.42
2018-11-27T03:32:07.960Z,98839.52
2018-11-27T03:34:36.284Z,98834.91
2018-11-27T03:37:04.655Z,98845.55
2018-11-27T03:39:32.973Z,98844.13
2018-11-27T03:42:01.414Z,98841.20
2018-11-27T03:44:29.768Z,98829.17
2018-11-27T03:46:58.106Z,98836.33
2018-11-27T03:49:26.524Z,98837.16
2018-11-27T03:51:54.828Z,98844.89
2018-11-27T03:54:23.153Z,98842.48
2018-11-27T03:56:51.449Z,98848.31
2018-11-27T03:59:19.797Z,98854.34
2018-11-27T04:01:48.205Z,98851.84
2018-11-27T04:04:16.511Z,98854.20
2018-11-27T04:06:44.860Z,98850.72
2018-11-27T04:09:13.183Z,98853.22
2018-11-27T04:11:41.637Z,98859.09
2018-11-27T04:14:09.977Z,98855.52
2018-11-27T04:16:38.370Z,98858.95
2018-11-27T04:19:06.801Z,98858.63
2018-11-27T04:21:35.144Z,98861.91
2018-11-27T04:24:03.501Z,98858.11
2018-11-27T04:26:32.075Z,98857.78
2018-11-27T04:29:00.427Z,98862.00
2018-11-27T04:31:28.835Z,98865.04
2018-11-27T04:33:57.194Z,98873.34
2018-11-27T04:36:25.607Z,98869.39
2018-11-27T04:38:53.884Z,98875.39
2018-11-27T04:41:22.311Z,98877.87
2018-11-27T04:43:50.700Z,98879.06
2018-11-27T04:46:19.017Z,98878.88
2018-11-27T04:48:47.335Z,98881.70
2018-11-27T04:51:15.763Z,98883.30
2018-11-27T04:53:44.052Z,98888.02
2018-11-27T04:56:12.377Z,98883.13
2018-11-27T04:58:40.748Z,98886.23
2018-11-27T05:01:09.162Z,98885.11
2018-11-27T05:03:37.502Z,98889.63
2018-11-27T05:06:06.008Z,98888.66
2018-11-27T05:08:34.363Z,98884.89
2018-11-27T05:11:02.671Z,98892.44
2018-11-27T05:13:32.219Z,98897.59
2018-11-27T05:15:59.410Z,98891.89
2018-11-27T05:18:27.778Z,98893.58
2018-11-27T05:20:56.093Z,98895.57
2018-11-27T05:23:24.413Z,98894.22
2018-11-27T05:25:53.177Z,98899.91
2018-11-27T05:28:21.587Z,98907.89
2018-11-27T05:30:49.989Z,98905.52
2018-11-27T05:33:18.360Z,98908.89
2018-11-27T05:35:46.740Z,98911.37
2018-11-27T05:38:15.104Z,98909.91
2018-11-27T05:40:43.493Z,98912.58
2018-11-27T05:43:11.837Z,98916.35
2018-11-27T05:45:40.330Z,98913.55
2018-11-27T05:48:08.717Z,98913.25
2018-11-27T05:50:37.167Z,98916.70
2018-11-27T05:53:06.185Z,98921.77
2018-11-27T05:55:34.577Z,98916.55
2018-11-27T05:58:02.875Z,98927.63
2018-11-27T06:00:31.228Z,98919.98
2018-11-27T06:03:01.186Z,98922.38
2018-11-27T06:05:29.785Z,98924.13
2018-11-27T06:07:58.119Z,98928.25
2018-11-27T06:10:26.484Z,98931.84
2018-11-27T06:12:54.881Z,98935.05
2018-11-27T06:15:24.173Z,98936.74
2018-11-27T06:17:55.823Z,98939.97
2018-11-27T06:20:24.293Z,98943.67
2018-11-27T06:22:53.616Z,98945.38
2018-11-27T06:25:23.227Z,98950.09
2018-11-27T06:27:53.387Z,98948.14
2018-11-27T06:30:23.997Z,98959.61
2018-11-27T06:32:52.456Z,98958.34
2018-11-27T06:35:23.022Z,98960.00
2018-11-27T06:37:51.650Z,98966.28
2018-11-27T06:40:21.241Z,98964.83
2018-11-27T06:42:49.688Z,98978.53
2018-11-27T06:45:19.878Z,98978.97
2018-11-27T06:47:50.824Z,98981.25
2018-11-27T06:50:19.896Z,98982.18
2018-11-27T06:52:48.345Z,98983.36
2018-11-27T06:55:18.070Z,98990.47
2018-11-27T06:57:46.421Z,98989.40
2018-11-27T07:00:17.122Z,98997.42
2018-11-27T07:02:45.533Z,99000.44
2018-11-27T07:05:14.475Z,99006.48
2018-11-27T07:07:43.619Z,99017.78
2018-11-27T07:10:20.951Z,99016.39
2018-11-27T07:12:50.977Z,99018.53
2018-11-27T07:15:20.777Z,99024.61
2018-11-27T07:17:49.364Z,99029.02
2018-11-27T07:21:44.581Z,99032.65
2018-11-27T07:24:13.046Z,99038.17
2018-11-27T07:26:41.573Z,99039.10
2018-11-27T07:29:09.950Z,99043.67
2018-11-27T07:31:38.341Z,99046.08
2018-11-27T07:34:06.851Z,99055.98
2018-11-27T07:36:35.368Z,99057.37
2018-11-27T07:39:05.270Z,99062.77
2018-11-27T07:41:34.191Z,99065.24
2018-11-27T07:44:04.615Z,99061.16
2018-11-27T07:46:33.004Z,99059.91
2018-11-27T07:49:01.842Z,99075.02
2018-11-27T07:51:30.374Z,99083.75
2018-11-27T07:53:58.672Z,99087.11
2018-11-27T07:56:27.045Z,99082.02
2018-11-27T07:58:55.537Z,99085.89
2018-11-27T08:01:23.848Z,99090.45
2018-11-27T08:03:52.131Z,99100.38
2018-11-27T08:06:20.372Z,99100.92
2018-11-27T08:08:48.622Z,99105.36
2018-11-27T08:11:16.867Z,99101.41
2018-11-27T08:13:45.122Z,99107.70
2018-11-27T08:16:13.350Z,99102.27
2018-11-27T08:18:41.615Z,99105.16
2018-11-27T08:21:09.879Z,99115.90
2018-11-27T08:23:38.246Z,99106.56
2018-11-27T08:26:06.983Z,99119.40
2018-11-27T08:28:35.339Z,99123.87
2018-11-27T08:31:03.673Z,99118.92
2018-11-27T08:33:31.985Z,99124.98
2018-11-27T08:36:00.331Z,99131.80
2018-11-27T08:38:28.621Z,99138.76
2018-11-27T08:40:56.886Z,99138.53
2018-11-27T08:43:25.268Z,99137.82
2018-11-27T08:45:53.483Z,99139.75
2018-11-27T08:48:21.769Z,99137.38
2018-11-27T08:50:50.038Z,99143.23
2018-11-27T08:53:18.284Z,99141.45
2018-11-27T08:55:46.551Z,99142.69
2018-11-27T08:58:20.522Z,99139.37
2018-11-27T09:00:48.909Z,99149.91
2018-11-27T09:03:17.208Z,99156.32
2018-11-27T09:05:45.460Z,99150.77
2018-11-27T09:08:13.727Z,99159.05
2018-11-27T09:10:41.985Z,99156.88
2018-11-27T09:13:10.233Z,99163.61
2018-11-27T09:15:38.530Z,99172.22
2018-11-27T09:18:17.999Z,99182.66
2018-11-27T09:20:46.273Z,99186.70
2018-11-27T09:23:14.537Z,99194.13
2018-11-27T09:25:42.843Z,99195.22
2018-11-27T09:28:11.131Z,99195.83
2018-11-27T09:30:39.471Z,99193.06
2018-11-27T09:33:08.468Z,99192.41
2018-11-27T09:35:36.833Z,99191.64
2018-11-27T09:38:05.253Z,99189.25
2018-11-27T09:40:33.539Z,99189.64
2018-11-27T09:43:01.800Z,99186.13
2018-11-27T09:45:30.104Z,99187.01
2018-11-27T09:47:59.062Z,99196.76
2018-11-27T09:50:27.307Z,99201.94
2018-11-27T09:52:55.610Z,99203.48
2018-11-27T09:55:27.540Z,99211.50
2018-11-27T09:57:58.995Z,99213.27
2018-11-27T10:00:27.468Z,99203.11
2018-11-27T10:02:57.007Z,99197.83
2018-11-27T10:05:25.291Z,99196.67
2018-11-27T10:07:53.576Z,99190.09
2018-11-27T10:10:24.228Z,99188.08
2018-11-27T10:12:52.579Z,99199.38
2018-11-27T10:15:23.141Z,99191.95
2018-11-27T10:17:53.627Z,99195.91
2018-11-27T10:20:23.135Z,99190.80
2018-11-27T10:22:51.411Z,99191.86
2018-11-27T10:25:19.649Z,99187.24
2018-11-27T10:27:47.913Z,99186.98
2018-11-27T10:30:21.295Z,99184.38
2018-11-27T10:32:50.463Z,99187.61
2018-11-27T10:35:28.636Z,99189.47
2018-11-27T10:37:56.972Z,99190.24
2018-11-27T10:40:25.252Z,99196.84
2018-11-27T10:42:53.675Z,99186.16
2018-11-27T10:45:22.801Z,99188.25
2018-11-27T10:47:54.427Z,99187.78
2018-11-27T10:50:23.302Z,99185.60
2018-11-27T10:52:56.472Z,99193.34
2018-11-27T10:55:24.867Z,99193.50
2018-11-27T10:57:53.284Z,99189.77
2018-11-27T11:00:29.766Z,99191.25
2018-11-27T11:03:03.373Z,99195.67
2018-11-27T11:05:33.464Z,99202.02
2018-11-27T11:08:01.775Z,99200.80
2018-11-27T11:10:30.017Z,99201.73
2018-11-27T11:12:58.423Z,99201.94
2018-11-27T11:15:26.989Z,99198.09
2018-11-27T11:17:55.322Z,99207.94
2018-11-27T11:20:24.355Z,99203.98
2018-11-27T11:22:52.634Z,99205.14
2018-11-27T11:25:22.117Z,99209.37
2018-11-27T11:27:58.413Z,99204.43
2018-11-27T11:30:26.632Z,99200.56
2018-11-27T11:32:54.890Z,99204.59
2018-11-27T11:35:23.161Z,99201.88
2018-11-27T11:37:51.482Z,99199.55
2018-11-27T11:40:22.927Z,99198.92
2018-11-27T11:42:53.424Z,99203.04
2018-11-27T11:45:21.651Z,99211.58
2018-11-27T11:47:49.919Z,99206.61
2018-11-27T11:50:22.239Z,99209.84
2018-11-27T11:52:51.936Z,99216.13
2018-11-27T11:55:20.552Z,99223.41
2018-11-27T11:57:48.799Z,99221.55
2018-11-27T12:00:23.456Z,99220.54
2018-11-27T12:02:51.712Z,99220.25
2018-11-27T12:05:24.885Z,99214.73
2018-11-27T12:07:48.686Z,99215.81
2018-11-27T12:10:17.231Z,99213.47
2018-11-27T12:12:46.535Z,99213.95
2018-11-27T12:15:15.907Z,99207.66
2018-11-27T12:17:44.694Z,99207.22
2018-11-27T12:20:14.106Z,99210.16
2018-11-27T12:22:44.148Z,99202.94
2018-11-27T12:25:13.338Z,99219.05
2018-11-27T12:27:41.671Z,99218.06
2018-11-27T12:30:12.185Z,99223.11
2018-11-27T12:32:40.447Z,99225.20
2018-11-27T12:35:09.621Z,99220.38
2018-11-27T12:37:38.196Z,99217.34
2018-11-27T12:40:10.453Z,99221.94
2018-11-27T12:42:38.858Z,99219.30
2018-11-27T12:45:09.198Z,99220.70
2018-11-27T12:47:37.469Z,99220.45
2018-11-27T12:50:10.256Z,99217.90
2018-11-27T12:52:38.703Z,99220.38
2018-11-27T12:55:08.968Z,99210.95
2018-11-27T12:57:37.252Z,99228.80
2018-11-27T13:00:14.347Z,99215.95
2018-11-27T13:02:42.726Z,99214.85
2018-11-27T13:05:15.158Z,99219.95
2018-11-27T13:07:43.526Z,99217.41
2018-11-27T13:10:14.941Z,99218.89
2018-11-27T13:12:43.647Z,99215.95
2018-11-27T13:15:16.067Z,99217.41
2018-11-27T13:17:44.424Z,99221.23
2018-11-27T13:20:14.150Z,99220.38
2018-11-27T13:22:43.502Z,99224.55
2018-11-27T13:25:14.966Z,99218.92
2018-11-27T13:27:43.216Z,99225.91
2018-11-27T13:30:16.716Z,99223.75
2018-11-27T13:32:46.363Z,99227.56
2018-11-27T13:35:14.779Z,99222.38
2018-11-27T13:37:43.024Z,99233.52
2018-11-27T13:40:12.455Z,99232.38
2018-11-27T13:42:41.519Z,99242.23
2018-11-27T13:45:11.420Z,99241.59
2018-11-27T13:47:39.656Z,99244.87
2018-11-27T13:50:14.356Z,99245.09
2018-11-27T13:52:42.769Z,99245.41
2018-11-27T13:55:17.417Z,99249.58
2018-11-27T13:57:45.742Z,99244.56
2018-11-27T14:00:16.200Z,99243.33
2018-11-27T14:02:46.528Z,99246.75
2018-11-27T14:05:16.633Z,99248.84
2018-11-27T14:07:45.086Z,99254.18
2018-11-27T14:10:13.581Z,99247.84
2018-11-27T14:12:41.990Z,99255.03
2018-11-27T14:15:15.453Z,99254.20
2018-11-27T14:17:43.896Z,99246.11
2018-11-27T14:20:12.443Z,99251.55
2018-11-27T14:22:40.797Z,99253.72
2018-11-27T14:25:11.734Z,99258.75
2018-11-27T14:27:40.180Z,99259.89
2018-11-27T14:30:13.575Z,99265.11
2018-11-27T14:32:41.895Z,99267.87
2018-11-27T14:35:10.671Z,99269.19
2018-11-27T14:37:39.192Z,99266.86
2018-11-27T14:40:12.230Z,99268.80
2018-11-27T14:42:40.745Z,99271.52
2018-11-27T14:45:12.872Z,99276.59
2018-11-27T14:47:41.193Z,99284.49
2018-11-27T14:50:11.064Z,99283.80
2018-11-27T14:52:39.534Z,99287.20
2018-11-27T14:55:09.900Z,99292.47
2018-11-27T14:57:38.214Z,99290.38
2018-11-27T15:00:10.174Z,99294.17
2018-11-27T15:02:38.475Z,99296.61
2018-11-27T15:05:10.409Z,99301.25
2018-11-27T15:07:38.908Z,99302.77
2018-11-27T15:10:10.447Z,99305.27
2018-11-27T15:12:38.929Z,99305.83
2018-11-27T15:15:09.061Z,99294.73
2018-11-27T15:17:37.617Z,99307.55
2018-11-27T15:20:12.526Z,99310.48
2018-11-27T15:22:40.927Z,99309.63
2018-11-27T15:25:09.522Z,99311.33
2018-11-27T15:27:39.455Z,99312.79
2018-11-27T15:30:11.721Z,99313.03
2018-11-27T15:32:40.034Z,99306.55
2018-11-27T15:35:08.618Z,99309.70
2018-11-27T15:37:36.949Z,99311.73
2018-11-27T15:40:08.053Z,99316.28
2018-11-27T15:42:36.451Z,99322.44
2018-11-27T15:45:05.862Z,99321.66
2018-11-27T15:47:34.232Z,99326.73
2018-11-27T15:50:02.563Z,99332.67
2018-11-27T15:52:31.253Z,99327.23
2018-11-27T15:54:59.700Z,99328.03
2018-11-27T15:57:28.037Z,99329.09
2018-11-27T15:59:56.494Z,99334.42
2018-11-27T16:02:25.000Z,99337.32
2018-11-27T16:04:53.437Z,99337.90
2018-11-27T16:07:21.957Z,99340.93
2018-11-27T16:09:50.425Z,99337.84
2018-11-27T16:12:18.809Z,99339.33
2018-11-27T16:14:47.285Z,99342.16
2018-11-27T16:17:15.674Z,99348.00
2018-11-27T16:19:44.022Z,99350.98
2018-11-27T16:22:12.442Z,99343.81
2018-11-27T16:24:40.775Z,99349.59
2018-11-27T16:27:09.162Z,99352.94
2018-11-27T16:29:37.582Z,99356.02
2018-11-27T16:32:06.242Z,99363.77
2018-11-27T16:34:34.728Z,99370.75
2018-11-27T16:37:03.037Z,99374.43
2018-11-27T16:45:30.778Z,99377.69
2018-11-27T16:48:00.852Z,99382.91
2018-11-27T16:50:29.540Z,99389.16
2018-11-27T16:52:57.935Z,99394.90
2018-11-27T16:55:26.285Z,99395.00
2018-11-27T16:57:54.645Z,99392.19
2018-11-27T17:00:26.246Z,99398.28
2018-11-27T17:02:57.035Z,99397.05
2018-11-27T17:05:26.523Z,99406.42
2018-11-27T17:07:55.127Z,99410.96
2018-11-27T17:10:23.712Z,99421.56
2018-11-27T17:12:53.800Z,99416.70
2018-11-27T17:15:23.463Z,99417.10
2018-11-27T17:17:52.435Z,99414.04
2018-11-27T17:20:26.082Z,99411.91
2018-11-27T17:22:55.541Z,99413.75
2018-11-27T17:25:24.286Z,99420.38
2018-11-27T17:27:53.799Z,99418.70
2018-11-27T17:30:26.842Z,99420.94
2018-11-27T17:32:55.887Z,99420.08
2018-11-27T17:35:25.367Z,99410.27
2018-11-27T17:37:53.856Z,99410.01
2018-11-27T17:40:22.360Z,99415.00
2018-11-27T17:42:51.151Z,99419.16
2018-11-27T17:45:20.042Z,99425.17
2018-11-27T17:47:48.781Z,99415.94
2018-11-27T17:50:18.145Z,99418.63
2018-11-27T17:52:47.117Z,99415.56
2018-11-27T17:55:15.711Z,99421.58
2018-11-27T17:57:44.450Z,99417.72
2018-11-27T18:00:19.080Z,99419.95
2018-11-27T18:02:50.180Z,99416.59
2018-11-27T18:05:18.937Z,99423.89
2018-11-27T18:07:48.178Z,99423.48
2018-11-27T18:10:16.630Z,99433.53
2018-11-27T18:12:45.299Z,99440.04
2018-11-27T18:15:19.780Z,99434.64
2018-11-27T18:17:48.298Z,99439.84
2018-11-27T18:20:16.594Z,99440.95
2018-11-27T18:22:45.058Z,99444.25
2018-11-27T18:25:17.312Z,99455.38
2018-11-27T18:27:47.065Z,99462.17
2018-11-27T18:30:18.616Z,99461.97
2018-11-27T18:32:47.084Z,99469.78
2018-11-27T18:35:16.663Z,99464.80
2018-11-27T18:37:45.746Z,99463.79
2018-11-27T18:40:15.003Z,99471.55
2018-11-27T18:42:43.903Z,99475.94
2018-11-27T18:45:15.362Z,99475.34
2018-11-27T18:47:43.786Z,99468.77
2018-11-27T18:50:12.449Z,99473.02
2018-11-27T18:52:41.286Z,99477.59
2018-11-27T18:55:11.849Z,99483.13
2018-11-27T18:57:40.997Z,99476.73
2018-11-27T19:00:20.835Z,99485.36
2018-11-27T19:02:49.967Z,99488.39
2018-11-27T19:05:18.582Z,99494.98
2018-11-27T19:07:47.203Z,99506.00
2018-11-27T19:10:17.710Z,99513.48
2018-11-27T19:12:47.007Z,99503.16
2018-11-27T19:15:21.034Z,99505.78
2018-11-27T19:17:52.272Z,99503.56
2018-11-27T19:20:20.774Z,99504.42
2018-11-27T19:22:49.366Z,99510.28
2018-11-27T19:25:18.142Z,99505.09
2018-11-27T19:27:47.103Z,99516.84
2018-11-27T19:30:19.986Z,99521.92
2018-11-27T19:32:48.629Z,99523.75
2018-11-27T19:35:18.217Z,99518.63
2018-11-27T19:37:47.694Z,99519.11
2018-11-27T19:40:17.524Z,99512.61
2018-11-27T19:42:46.119Z,99510.10
2018-11-27T19:45:23.809Z,99517.77
2018-11-27T19:47:52.883Z,99512.52
2018-11-27T19:50:22.604Z,99517.64
2018-11-27T19:52:53.532Z,99524.00
2018-11-27T19:55:22.221Z,99529.36
2018-11-27T19:57:50.911Z,99530.38
2018-11-27T20:00:21.396Z,99528.02
2018-11-27T20:02:50.140Z,99528.20
2018-11-27T20:05:21.828Z,99520.33
2018-11-27T20:07:53.749Z,99524.39
2018-11-27T20:10:22.373Z,99523.99
2018-11-27T20:12:50.866Z,99526.73
2018-11-27T20:15:21.386Z,99526.77
2018-11-27T20:17:50.785Z,99528.55
2018-11-27T20:20:23.051Z,99527.51
2018-11-27T20:22:51.571Z,99526.84
2018-11-27T20:25:21.240Z,99528.84
2018-11-27T20:27:49.831Z,99528.78
2018-11-27T20:30:20.200Z,99533.18
2018-11-27T20:32:52.892Z,99532.94
2018-11-27T20:35:21.321Z,99538.16
2018-11-27T20:37:51.008Z,99535.45
2018-11-27T20:40:20.111Z,99537.24
2018-11-27T20:42:48.784Z,99532.08
2018-11-27T20:45:22.304Z,99527.30
2018-11-27T20:47:58.118Z,99535.92
2018-11-27T20:50:26.682Z,99536.48
2018-11-27T20:52:55.260Z,99543.91
2018-11-27T20:55:23.680Z,99541.58
2018-11-27T20:57:58.192Z,99541.58
2018-11-27T21:00:31.096Z,99537.86
2018-11-27T21:03:00.573Z,99539.02
2018-11-27T21:05:28.923Z,99545.12
2018-11-27T21:07:57.303Z,99541.40
2018-11-27T21:10:25.657Z,99550.45
2018-11-27T21:12:54.093Z,99556.97
2018-11-27T21:15:22.602Z,99558.97
2018-11-27T21:17:50.950Z,99552.74
2018-11-27T21:20:19.722Z,99551.84
2018-11-27T21:22:47.933Z,99554.41
2018-11-27T21:25:18.286Z,99556.55
2018-11-27T21:27:48.576Z,99559.55
2018-11-27T21:30:17.876Z,99554.09
2018-11-27T21:32:46.268Z,99559.08
2018-11-27T21:35:15.657Z,99559.88
2018-11-27T21:37:44.069Z,99555.74
2018-11-27T21:40:14.709Z,99564.79
2018-11-27T21:42:43.012Z,99570.49
2018-11-27T21:45:17.603Z,99563.84
2018-11-27T21:47:46.183Z,99560.11
2018-11-27T21:50:16.901Z,99560.94
2018-11-27T21:52:45.181Z,99561.28
2018-11-27T21:55:14.548Z,99560.09
2018-11-27T21:57:42.948Z,99554.98
2018-11-27T22:00:15.291Z,99553.03
2018-11-27T22:02:43.654Z,99554.27
2018-11-27T22:05:12.572Z,99555.81
2018-11-27T22:07:40.977Z,99552.16
2018-11-27T22:10:10.376Z,99555.35
2018-11-27T22:12:38.680Z,99551.93
2018-11-27T22:15:09.703Z,99562.09
2018-11-27T22:17:38.093Z,99564.84
2018-11-27T22:20:08.361Z,99575.23
2018-11-27T22:22:36.766Z,99573.40
2018-11-27T22:25:06.503Z,99568.72
2018-11-27T22:27:34.970Z,99562.59
2018-11-27T22:30:03.434Z,99559.88
2018-11-27T22:32:31.757Z,99563.13
2018-11-27T22:35:00.060Z,99567.35
2018-11-27T22:37:28.483Z,99568.45
2018-11-27T22:39:56.768Z,99564.44
2018-11-27T22:42:25.092Z,99563.32
2018-11-27T22:44:53.424Z,99574.89
2018-11-27T22:47:21.740Z,99572.50
2018-11-27T22:49:50.053Z,99573.58
2018-11-27T22:52:18.405Z,99575.45
2018-11-27T22:54:46.905Z,99572.33
2018-11-27T22:57:15.221Z,99566.90
2018-11-27T22:59:43.692Z,99564.70
2018-11-27T23:02:13.133Z,99566.28
2018-11-27T23:04:41.512Z,99571.31
2018-11-27T23:07:14.794Z,99574.25
2018-11-27T23:09:43.243Z,99568.39
2018-11-27T23:12:11.539Z,99572.84
2018-11-27T23:14:39.920Z,99575.56
2018-11-27T23:17:08.285Z,99574.95
2018-11-27T23:19:36.607Z,99578.70
2018-11-27T23:22:04.917Z,99580.30
2018-11-27T23:24:33.465Z,99569.48
2018-11-27T23:27:04.817Z,99572.16
2018-11-27T23:29:33.196Z,99581.80
2018-11-27T23:32:09.733Z,99579.63
2018-11-27T23:34:38.119Z,99580.59
2018-11-27T23:37:06.472Z,99578.48
2018-11-27T23:39:34.789Z,99587.84
2018-11-27T23:42:03.163Z,99595.58
2018-11-27T23:44:31.617Z,99588.86
2018-11-27T23:46:59.993Z,99589.08
2018-11-27T23:49:28.376Z,99587.77
2018-11-27T23:51:56.725Z,99592.61
2018-11-27T23:54:25.056Z,99587.31
2018-11-27T23:56:53.696Z,99593.25
2018-11-27T23:59:22.052Z,99587.05
